CheckWX is a tool to help pilots better visualize weather data.  It is not intended as a substitute for an official pre-flight weather briefing.

07:39:01 UTC

RPLB METAR
Subic Bay International Airport
Olongapo City, Philippines
Current

39 mins ago

RPLB 060700Z 23008KT 200V270 9999 FEW020 33/21 Q1009 NOSIG RMK A2980
Observed
Apr-6 @ 07:00 UTC
Wind
  • 230° at 8 KTS
Visibility
10,000+ meters
Flight Rules
VFR
Cloud Levels
  • Few at 2,000' AGL
Temperature
33°C / 91°F
Dewpoint
21°C / 70°F
Humidity
49%
Altimeter
29.79" Hg
Pressure
1008.92 hPa
Previous

2 hours ago

RPLB 060600Z VRB05KT 9999 FEW020 35/19 Q1010 NOSIG RMK A2983
Observed
Apr-6 @ 06:00 UTC
Wind
  • Variable at 5 KTS
Visibility
10,000+ meters
Flight Rules
VFR
Cloud Levels
  • Few at 2,000' AGL
Temperature
35°C / 95°F
Dewpoint
19°C / 66°F
Humidity
39%
Altimeter
29.82" Hg
Pressure
1009.92 hPa
Previous

3 hours ago

RPLB 060500Z 24007KT 9999 FEW020 32/20 Q1012 NOSIG RMK A2988
Observed
Apr-6 @ 05:00 UTC
Wind
  • 240° at 7 KTS
Visibility
10,000+ meters
Flight Rules
VFR
Cloud Levels
  • Few at 2,000' AGL
Temperature
32°C / 90°F
Dewpoint
20°C / 68°F
Humidity
49%
Altimeter
29.88" Hg
Pressure
1011.92 hPa